createdAt,value
2019-04-29T00:01:31.895Z,6.56
2019-04-29T00:04:00.888Z,6.53
2019-04-29T00:06:30.316Z,6.63
2019-04-29T00:08:59.481Z,6.43
2019-04-29T00:11:28.773Z,6.65
2019-04-29T00:13:58.555Z,6.82
2019-04-29T00:16:31.798Z,6.80
2019-04-29T00:19:05.110Z,6.61
2019-04-29T00:21:34.410Z,6.52
2019-04-29T00:24:04.409Z,6.56
2019-04-29T00:26:33.504Z,6.59
2019-04-29T00:29:02.395Z,6.49
2019-04-29T00:31:31.286Z,6.55
2019-04-29T00:34:00.179Z,6.13
2019-04-29T00:36:36.750Z,6.28
2019-04-29T00:39:11.708Z,6.43
2019-04-29T00:41:48.151Z,6.61
2019-04-29T00:44:18.067Z,6.65
2019-04-29T00:46:46.960Z,6.67
2019-04-29T00:49:15.847Z,6.50
2019-04-29T00:51:44.747Z,6.64
2019-04-29T00:54:15.269Z,6.38
2019-04-29T00:56:44.163Z,6.42
2019-04-29T00:59:13.051Z,6.53
2019-04-29T01:01:42.767Z,6.45
2019-04-29T01:04:12.473Z,6.48
2019-04-29T01:06:41.365Z,6.50
2019-04-29T01:09:12.859Z,6.48
2019-04-29T01:11:41.706Z,5.99
2019-04-29T01:14:11.519Z,6.10
2019-04-29T01:16:40.411Z,6.29
2019-04-29T01:19:09.509Z,6.09
2019-04-29T01:21:38.397Z,5.76
2019-04-29T01:24:08.005Z,6.11
2019-04-29T01:26:56.252Z,6.11
2019-04-29T01:29:26.681Z,5.97
2019-04-29T01:31:57.002Z,6.15
2019-04-29T01:34:33.248Z,6.26
2019-04-29T01:37:02.055Z,6.51
2019-04-29T01:39:32.585Z,6.20
2019-04-29T01:42:12.042Z,6.23
2019-04-29T01:44:40.912Z,6.45
2019-04-29T01:47:11.035Z,5.88
2019-04-29T01:49:40.232Z,6.04
2019-04-29T01:52:09.147Z,6.00
2019-04-29T01:54:38.116Z,6.25
2019-04-29T01:57:07.707Z,6.33
2019-04-29T01:59:36.514Z,6.30
2019-04-29T02:02:05.510Z,6.37
2019-04-29T02:04:34.499Z,6.31
2019-04-29T02:07:03.495Z,6.37
2019-04-29T02:09:37.096Z,6.31
2019-04-29T02:12:06.129Z,6.31
2019-04-29T02:14:34.980Z,6.34
2019-04-29T02:17:03.975Z,6.24
2019-04-29T02:19:32.967Z,6.36
2019-04-29T02:22:09.591Z,6.20
2019-04-29T02:24:40.202Z,5.92
2019-04-29T02:27:10.085Z,6.04
2019-04-29T02:29:38.976Z,6.06
2019-04-29T02:32:08.791Z,6.20
2019-04-29T02:34:37.685Z,6.00
2019-04-29T02:37:08.985Z,5.98
2019-04-29T02:39:42.128Z,5.94
2019-04-29T02:42:29.647Z,5.93
2019-04-29T02:45:00.181Z,5.98
2019-04-29T02:47:29.074Z,5.87
2019-04-29T02:49:57.959Z,6.09
2019-04-29T02:52:26.848Z,6.17
2019-04-29T02:54:57.277Z,6.21
2019-04-29T02:57:30.675Z,6.32
2019-04-29T03:00:01.272Z,6.23
2019-04-29T03:02:31.939Z,5.97
2019-04-29T03:05:14.515Z,5.99
2019-04-29T03:07:43.748Z,6.00
2019-04-29T03:10:13.460Z,6.08
2019-04-29T03:12:42.657Z,5.75
2019-04-29T03:15:14.526Z,5.28
2019-04-29T03:17:43.413Z,5.68
2019-04-29T03:20:20.902Z,5.81
2019-04-29T03:22:51.023Z,5.65
2019-04-29T03:25:19.917Z,5.16
2019-04-29T03:27:48.807Z,5.21
2019-04-29T03:30:18.210Z,5.45
2019-04-29T03:32:47.101Z,5.51
2019-04-29T03:35:17.730Z,5.63
2019-04-29T03:37:46.725Z,5.46
2019-04-29T03:40:15.619Z,5.22
2019-04-29T03:42:46.042Z,5.54
2019-04-29T03:45:14.935Z,5.48
2019-04-29T03:47:48.151Z,5.56
2019-04-29T03:50:17.018Z,5.70
2019-04-29T03:52:46.013Z,5.59
2019-04-29T03:55:15.012Z,5.15
2019-04-29T03:57:43.900Z,5.41
2019-04-29T04:00:15.041Z,5.37
2019-04-29T04:03:03.620Z,5.12
2019-04-29T04:05:39.964Z,5.33
2019-04-29T04:08:19.912Z,5.31
2019-04-29T04:10:48.803Z,5.31
2019-04-29T04:13:17.703Z,5.09
2019-04-29T04:15:46.590Z,5.16
2019-04-29T04:18:17.018Z,5.35
2019-04-29T04:20:45.904Z,5.42
2019-04-29T04:23:14.792Z,5.49
2019-04-29T04:25:43.788Z,5.42
2019-04-29T04:28:14.315Z,5.31
2019-04-29T04:30:43.309Z,5.62
2019-04-29T04:33:12.208Z,5.64
2019-04-29T04:35:41.196Z,5.58
2019-04-29T04:38:10.806Z,5.50
2019-04-29T04:40:41.233Z,5.41
2019-04-29T04:43:10.637Z,5.19
2019-04-29T04:45:39.523Z,4.99
2019-04-29T04:48:08.842Z,5.39
2019-04-29T04:50:37.714Z,5.18
2019-04-29T04:53:06.605Z,5.38
2019-04-29T04:55:37.034Z,5.51
2019-04-29T04:58:05.923Z,5.16
2019-04-29T05:00:36.557Z,5.26
2019-04-29T05:03:05.553Z,5.28
2019-04-29T05:05:34.446Z,5.31
2019-04-29T05:08:03.330Z,5.59
2019-04-29T05:10:32.222Z,5.58
2019-04-29T05:13:01.115Z,5.64
2019-04-29T05:15:30.014Z,5.65
2019-04-29T05:17:58.900Z,5.76
2019-04-29T05:20:27.786Z,5.66
2019-04-29T05:22:59.649Z,5.60
2019-04-29T05:25:30.484Z,5.27
2019-04-29T05:27:59.785Z,5.07
2019-04-29T05:30:28.677Z,5.27
2019-04-29T05:32:57.667Z,5.04
2019-04-29T05:35:40.539Z,5.31
2019-04-29T05:38:19.619Z,5.56
2019-04-29T05:40:50.047Z,5.82
2019-04-29T05:43:35.839Z,5.70
2019-04-29T05:46:12.062Z,5.80
2019-04-29T05:48:40.886Z,5.69
2019-04-29T05:51:17.969Z,5.58
2019-04-29T05:53:54.688Z,5.93
2019-04-29T05:56:19.028Z,6.31
2019-04-29T05:58:47.920Z,6.17
2019-04-29T06:01:18.348Z,6.25
2019-04-29T06:03:47.238Z,6.32
2019-04-29T06:06:16.130Z,6.47
2019-04-29T06:08:45.021Z,6.39
2019-04-29T06:11:13.932Z,6.54
2019-04-29T06:13:42.806Z,6.44
2019-04-29T06:16:15.943Z,6.51
2019-04-29T06:18:42.224Z,6.18
2019-04-29T06:21:11.628Z,6.25
2019-04-29T06:23:40.564Z,6.68
2019-04-29T06:26:10.638Z,7.10
2019-04-29T06:28:39.528Z,7.11
2019-04-29T06:31:08.624Z,6.99
2019-04-29T06:33:37.515Z,7.25
2019-04-29T06:36:06.611Z,7.20
2019-04-29T06:38:35.509Z,6.88
2019-04-29T06:41:05.549Z,7.01
2019-04-29T06:43:34.925Z,7.15
2019-04-29T06:46:03.916Z,6.90
2019-04-29T06:48:32.811Z,7.16
2019-04-29T06:51:01.751Z,7.40
2019-04-29T06:53:30.696Z,6.97
2019-04-29T06:55:59.589Z,7.21
2019-04-29T06:58:28.480Z,7.38
2019-04-29T07:01:00.987Z,7.26
2019-04-29T07:03:28.002Z,7.34
2019-04-29T07:05:56.895Z,7.14
2019-04-29T07:08:25.784Z,7.42
2019-04-29T07:10:55.849Z,7.46
2019-04-29T07:13:26.741Z,7.21
2019-04-29T07:15:55.633Z,6.65
2019-04-29T07:18:24.526Z,6.72
2019-04-29T07:20:53.416Z,7.02
2019-04-29T07:23:22.409Z,7.26
2019-04-29T07:25:51.303Z,7.34
2019-04-29T07:28:20.194Z,7.60
2019-04-29T07:31:01.268Z,7.60
2019-04-29T07:33:22.684Z,7.16
2019-04-29T07:35:50.240Z,6.85
2019-04-29T07:38:19.260Z,7.13
2019-04-29T07:40:48.158Z,7.15
2019-04-29T07:43:17.015Z,7.13
2019-04-29T07:45:53.280Z,7.56
2019-04-29T07:48:22.171Z,7.70
2019-04-29T07:50:51.060Z,7.53
2019-04-29T07:53:21.879Z,7.53
2019-04-29T07:55:50.586Z,7.42
2019-04-29T07:58:23.045Z,7.48
2019-04-29T08:00:50.102Z,7.32
2019-04-29T08:03:18.999Z,7.21
2019-04-29T08:05:48.291Z,7.53
2019-04-29T08:08:21.374Z,7.64
2019-04-29T08:10:56.093Z,7.60
2019-04-29T08:13:21.748Z,7.66
2019-04-29T08:15:50.628Z,7.85
2019-04-29T08:18:19.514Z,7.79
2019-04-29T08:20:48.510Z,7.98
2019-04-29T08:23:20.417Z,8.00
2019-04-29T08:25:51.069Z,8.13
2019-04-29T08:28:20.109Z,8.17
2019-04-29T08:30:49.092Z,8.26
2019-04-29T08:33:17.981Z,8.05
2019-04-29T08:35:47.067Z,8.36
2019-04-29T08:38:15.869Z,8.42
2019-04-29T08:40:45.245Z,8.10
2019-04-29T08:43:22.399Z,8.33
2019-04-29T08:45:52.986Z,8.49
2019-04-29T08:48:21.877Z,8.40
2019-04-29T08:50:50.767Z,8.78
2019-04-29T08:53:19.847Z,8.50
2019-04-29T08:55:48.959Z,9.11
2019-04-29T08:58:17.954Z,9.22
2019-04-29T09:00:46.845Z,9.27
2019-04-29T09:03:18.716Z,9.18
2019-04-29T09:06:04.353Z,9.47
2019-04-29T09:08:16.941Z,9.58
2019-04-29T09:10:45.996Z,9.39
2019-04-29T09:13:14.885Z,9.08
2019-04-29T09:15:43.777Z,9.77
2019-04-29T09:18:12.668Z,9.64
2019-04-29T09:20:42.399Z,9.52
2019-04-29T09:23:19.462Z,9.65
2019-04-29T09:26:01.940Z,9.39
2019-04-29T09:28:27.172Z,9.71
2019-04-29T09:30:51.663Z,9.72
2019-04-29T09:33:21.990Z,9.16
2019-04-29T09:35:50.884Z,9.13
2019-04-29T09:38:19.768Z,9.21
2019-04-29T09:40:54.594Z,9.43
2019-04-29T09:43:38.441Z,9.82
2019-04-29T09:46:10.006Z,10.04
2019-04-29T09:48:38.886Z,9.96
2019-04-29T09:51:17.250Z,10.03
2019-04-29T09:53:39.336Z,9.85
2019-04-29T09:56:09.248Z,10.03
2019-04-29T09:58:38.142Z,10.41
2019-04-29T10:01:09.190Z,10.40
2019-04-29T10:03:39.608Z,10.46
2019-04-29T10:06:12.497Z,10.84
2019-04-29T10:08:40.872Z,10.60
2019-04-29T10:11:10.381Z,10.20
2019-04-29T10:13:39.370Z,10.06
2019-04-29T10:16:13.578Z,10.17
2019-04-29T10:18:44.016Z,9.90
2019-04-29T10:21:16.723Z,10.03
2019-04-29T10:23:45.367Z,10.01
2019-04-29T10:26:16.729Z,10.14
2019-04-29T10:29:05.589Z,9.90
2019-04-29T10:31:34.481Z,10.07
2019-04-29T10:34:03.682Z,10.33
2019-04-29T10:36:32.568Z,10.12
2019-04-29T10:39:02.993Z,9.71
2019-04-29T10:41:36.156Z,9.73
2019-04-29T10:44:22.382Z,9.87
2019-04-29T10:47:07.032Z,9.97
2019-04-29T10:49:39.323Z,9.81
2019-04-29T10:52:08.638Z,10.20
2019-04-29T10:54:37.508Z,10.63
2019-04-29T10:57:06.502Z,10.34
2019-04-29T10:59:40.727Z,10.21
2019-04-29T11:02:29.064Z,10.28
2019-04-29T11:05:07.902Z,10.44
2019-04-29T11:07:44.358Z,10.45
2019-04-29T11:10:25.747Z,10.56
2019-04-29T11:12:55.451Z,10.62
2019-04-29T11:15:29.421Z,10.73
2019-04-29T11:17:59.382Z,10.94
2019-04-29T11:20:27.640Z,10.80
2019-04-29T11:22:59.517Z,10.68
2019-04-29T11:25:35.990Z,10.93
2019-04-29T11:28:05.283Z,10.97
2019-04-29T11:30:39.362Z,11.06
2019-04-29T11:33:15.008Z,10.85
2019-04-29T11:35:45.479Z,10.58
2019-04-29T11:38:16.032Z,10.37
2019-04-29T11:40:46.076Z,10.32
2019-04-29T11:43:17.231Z,10.32
2019-04-29T11:45:47.083Z,10.37
2019-04-29T11:48:16.076Z,10.51
2019-04-29T11:51:05.039Z,10.58
2019-04-29T11:53:34.028Z,10.28
2019-04-29T11:56:03.027Z,10.46
2019-04-29T11:58:36.625Z,10.61
2019-04-29T12:01:37.370Z,10.74
2019-04-29T12:03:56.614Z,10.60
2019-04-29T12:06:26.948Z,10.66
2019-04-29T12:08:56.370Z,10.86
2019-04-29T12:11:28.660Z,10.74
2019-04-29T12:14:10.338Z,10.62
2019-04-29T12:16:40.745Z,10.97
2019-04-29T12:19:21.299Z,11.21
2019-04-29T12:21:49.486Z,11.33
2019-04-29T12:24:18.701Z,11.05
2019-04-29T12:26:47.682Z,10.80
2019-04-29T12:29:18.277Z,10.77
2019-04-29T12:31:50.836Z,11.16
2019-04-29T12:34:21.009Z,11.07
2019-04-29T12:36:55.907Z,11.26
2019-04-29T12:39:43.587Z,11.17
2019-04-29T12:42:13.796Z,11.20
2019-04-29T12:44:56.207Z,11.27
2019-04-29T12:47:29.907Z,11.45
2019-04-29T12:49:58.799Z,11.37
2019-04-29T12:52:28.200Z,11.24
2019-04-29T12:54:57.194Z,11.36
2019-04-29T12:57:26.086Z,11.55
2019-04-29T12:59:55.124Z,11.74
2019-04-29T13:02:42.179Z,11.80
2019-04-29T13:05:13.240Z,11.51
2019-04-29T13:07:43.674Z,11.23
2019-04-29T13:10:31.094Z,11.53
2019-04-29T13:12:59.997Z,11.35
2019-04-29T13:15:43.818Z,11.51
2019-04-29T13:18:23.483Z,11.31
2019-04-29T13:20:53.715Z,11.43
2019-04-29T13:23:33.226Z,11.71
2019-04-29T13:25:56.130Z,11.83
2019-04-29T13:28:30.339Z,11.92
2019-04-29T13:30:56.877Z,12.34
2019-04-29T13:33:25.005Z,12.03
2019-04-29T13:35:54.015Z,11.80
2019-04-29T13:38:22.991Z,12.30
2019-04-29T13:41:11.748Z,11.94
2019-04-29T13:43:25.860Z,12.21
2019-04-29T13:46:07.925Z,12.25
2019-04-29T13:48:54.885Z,12.15
2019-04-29T13:51:10.590Z,11.88
2019-04-29T13:53:39.482Z,12.07
2019-04-29T13:56:11.855Z,12.35
2019-04-29T13:58:39.318Z,12.74
2019-04-29T14:01:23.836Z,12.62
2019-04-29T14:03:49.549Z,12.62
2019-04-29T14:06:19.906Z,12.48
2019-04-29T14:08:49.009Z,12.41
2019-04-29T14:11:21.983Z,12.47
2019-04-29T14:13:50.170Z,12.48
2019-04-29T14:16:19.420Z,12.48
2019-04-29T14:18:49.931Z,12.41
2019-04-29T14:21:19.310Z,12.10
2019-04-29T14:23:48.191Z,11.95
2019-04-29T14:26:17.083Z,11.84
2019-04-29T14:28:45.973Z,12.10
2019-04-29T14:31:18.604Z,12.02
2019-04-29T14:33:55.797Z,11.67
2019-04-29T14:36:24.685Z,11.89
2019-04-29T14:38:54.341Z,12.02
2019-04-29T14:41:23.240Z,11.83
2019-04-29T14:43:55.222Z,11.59
2019-04-29T14:46:41.902Z,11.65
2019-04-29T14:49:15.600Z,11.68
2019-04-29T14:51:44.499Z,11.65
2019-04-29T14:54:13.387Z,11.77
2019-04-29T14:56:43.856Z,11.79
2019-04-29T14:59:17.004Z,11.63
2019-04-29T15:01:47.442Z,11.72
2019-04-29T15:04:19.109Z,11.64
2019-04-29T15:06:48.212Z,11.73
2019-04-29T15:09:19.660Z,11.58
2019-04-29T15:11:58.527Z,11.67
2019-04-29T15:14:33.664Z,11.51
2019-04-29T15:17:04.235Z,11.39
2019-04-29T15:19:54.985Z,11.15
2019-04-29T15:22:42.256Z,11.29
2019-04-29T15:25:12.795Z,11.55
2019-04-29T15:27:41.681Z,11.60
2019-04-29T15:30:11.847Z,11.59
2019-04-29T15:32:40.894Z,11.52
2019-04-29T15:35:11.217Z,11.48
2019-04-29T15:37:40.110Z,11.40
2019-04-29T15:40:10.151Z,11.70
2019-04-29T15:42:43.167Z,11.68
2019-04-29T15:45:12.223Z,11.84
2019-04-29T15:47:45.207Z,11.96
2019-04-29T15:50:18.491Z,11.81
2019-04-29T15:52:42.780Z,11.78
2019-04-29T15:55:12.488Z,11.73
2019-04-29T15:57:49.489Z,11.68
2019-04-29T16:00:22.136Z,11.76
2019-04-29T16:02:44.412Z,11.93
2019-04-29T16:05:31.505Z,11.64
2019-04-29T16:08:18.414Z,11.55
2019-04-29T16:11:04.920Z,11.54
2019-04-29T16:13:38.458Z,11.52
2019-04-29T16:16:08.334Z,11.63
2019-04-29T16:18:37.230Z,11.79
2019-04-29T16:21:07.599Z,11.63
2019-04-29T16:23:41.360Z,11.69
2019-04-29T16:26:13.023Z,11.59
2019-04-29T16:28:46.432Z,11.61
2019-04-29T16:31:15.303Z,11.61
2019-04-29T16:33:47.534Z,11.74
2019-04-29T16:36:14.930Z,11.72
2019-04-29T16:38:46.444Z,11.61
2019-04-29T16:41:22.223Z,11.57
2019-04-29T16:43:52.759Z,11.79
2019-04-29T16:46:37.640Z,11.84
2019-04-29T16:49:06.433Z,11.67
2019-04-29T16:51:47.805Z,11.64
2019-04-29T16:54:27.984Z,11.68
2019-04-29T16:56:59.568Z,11.72
2019-04-29T16:59:39.480Z,11.74
2019-04-29T17:02:18.991Z,11.61
2019-04-29T17:04:59.153Z,11.50
2019-04-29T17:07:28.249Z,11.42
2019-04-29T17:10:10.803Z,11.47
2019-04-29T17:12:41.289Z,11.57
2019-04-29T17:15:24.229Z,11.29
2019-04-29T17:17:43.166Z,11.23
2019-04-29T17:20:14.526Z,11.19
2019-04-29T17:22:44.773Z,11.02
2019-04-29T17:25:14.686Z,11.07
2019-04-29T17:27:57.594Z,11.00
2019-04-29T17:30:30.801Z,11.07
2019-04-29T17:33:02.204Z,11.34
2019-04-29T17:35:33.362Z,11.28
2019-04-29T17:38:02.255Z,11.24
2019-04-29T17:40:31.247Z,11.17
2019-04-29T17:43:04.933Z,11.26
2019-04-29T17:45:42.750Z,11.36
2019-04-29T17:48:18.332Z,11.48
2019-04-29T17:50:47.764Z,11.81
2019-04-29T17:53:30.518Z,12.12
2019-04-29T17:56:09.941Z,12.24
2019-04-29T17:58:55.884Z,11.92
2019-04-29T18:01:42.580Z,11.53
2019-04-29T18:04:11.716Z,11.57
2019-04-29T18:06:43.410Z,11.32
2019-04-29T18:09:29.301Z,11.40
2019-04-29T18:11:58.665Z,10.95
2019-04-29T18:14:36.542Z,11.12
2019-04-29T18:16:59.557Z,11.09
2019-04-29T18:19:47.191Z,11.19
2019-04-29T18:22:35.001Z,11.34
2019-04-29T18:25:08.222Z,11.35
2019-04-29T18:27:38.594Z,11.01
2019-04-29T18:30:12.270Z,10.88
2019-04-29T18:32:42.175Z,10.84
2019-04-29T18:35:10.947Z,10.39
2019-04-29T18:37:41.376Z,10.74
2019-04-29T18:40:11.190Z,10.48
2019-04-29T18:42:43.309Z,10.55
2019-04-29T18:45:11.735Z,10.41
2019-04-29T18:47:40.627Z,10.55
2019-04-29T18:50:10.650Z,10.47
2019-04-29T18:52:39.545Z,10.50
2019-04-29T18:55:09.146Z,10.16
2019-04-29T18:57:38.311Z,10.25
2019-04-29T19:00:12.469Z,10.23
2019-04-29T19:02:46.090Z,9.81
2019-04-29T19:05:21.092Z,9.88
2019-04-29T19:07:55.276Z,9.70
2019-04-29T19:10:32.013Z,9.60
2019-04-29T19:12:59.541Z,9.54
2019-04-29T19:15:21.882Z,9.50
2019-04-29T19:17:59.214Z,9.60
2019-04-29T19:20:21.490Z,9.75
2019-04-29T19:22:55.804Z,9.50
2019-04-29T19:25:20.839Z,9.31
2019-04-29T19:27:49.715Z,9.22
2019-04-29T19:30:21.087Z,9.32
2019-04-29T19:32:49.442Z,9.34
2019-04-29T19:35:18.437Z,9.20
2019-04-29T19:37:47.429Z,9.24
2019-04-29T19:40:16.320Z,9.27
2019-04-29T19:42:46.866Z,9.20
2019-04-29T19:45:17.457Z,9.06
2019-04-29T19:47:52.032Z,9.08
2019-04-29T19:50:19.427Z,9.27
2019-04-29T19:52:47.741Z,9.15
2019-04-29T19:55:16.631Z,9.15
2019-04-29T19:57:48.207Z,9.07
2019-04-29T20:00:17.781Z,9.23
2019-04-29T20:02:50.142Z,9.23
2019-04-29T20:05:35.375Z,9.20
2019-04-29T20:08:02.653Z,9.20
2019-04-29T20:10:44.390Z,9.18
2019-04-29T20:13:04.480Z,9.03
2019-04-29T20:15:37.459Z,9.02
2019-04-29T20:18:26.067Z,9.15
2019-04-29T20:21:07.604Z,8.93
2019-04-29T20:23:26.447Z,9.10
2019-04-29T20:26:05.481Z,8.85
2019-04-29T20:28:26.359Z,8.73
2019-04-29T20:31:08.231Z,8.60
2019-04-29T20:33:26.185Z,8.82
2019-04-29T20:35:56.274Z,8.65
2019-04-29T20:38:29.903Z,8.85
2019-04-29T20:40:56.374Z,8.85
2019-04-29T20:43:28.551Z,8.61
2019-04-29T20:45:58.121Z,8.61
2019-04-29T20:48:26.739Z,8.65
2019-04-29T20:50:56.629Z,8.61
2019-04-29T20:53:34.912Z,8.62
2019-04-29T20:56:10.353Z,8.54
2019-04-29T20:58:33.264Z,8.59
2019-04-29T21:01:05.167Z,8.76
2019-04-29T21:03:33.437Z,8.72
2019-04-29T21:06:06.195Z,8.67
2019-04-29T21:08:35.015Z,8.60
2019-04-29T21:11:05.881Z,8.50
2019-04-29T21:13:42.391Z,8.49
2019-04-29T21:16:29.036Z,8.71
2019-04-29T21:18:56.675Z,8.61
2019-04-29T21:21:25.626Z,8.82
2019-04-29T21:23:55.293Z,8.73
2019-04-29T21:26:26.071Z,8.55
2019-04-29T21:28:55.529Z,8.89
2019-04-29T21:31:25.465Z,8.78
2019-04-29T21:33:58.658Z,8.77
2019-04-29T21:36:45.251Z,8.79
2019-04-29T21:39:32.394Z,8.84
2019-04-29T21:42:16.804Z,8.92
2019-04-29T21:44:45.660Z,8.76
2019-04-29T21:47:16.163Z,8.80
2019-04-29T21:49:45.751Z,8.94
2019-04-29T21:52:19.568Z,8.76
2019-04-29T21:54:49.183Z,8.39
2019-04-29T21:57:23.453Z,8.61
2019-04-29T21:59:48.665Z,8.50
2019-04-29T22:02:19.079Z,8.68
2019-04-29T22:04:48.052Z,8.60
2019-04-29T22:07:17.043Z,8.65
2019-04-29T22:09:50.011Z,8.65
2019-04-29T22:12:20.285Z,8.51
2019-04-29T22:14:52.585Z,8.51
2019-04-29T22:17:18.450Z,8.64
2019-04-29T22:19:47.336Z,8.39
2019-04-29T22:22:16.329Z,8.62
2019-04-29T22:24:45.793Z,8.43
2019-04-29T22:27:16.189Z,8.57
2019-04-29T22:29:45.432Z,8.43
2019-04-29T22:32:19.168Z,8.49
2019-04-29T22:34:49.543Z,8.24
2019-04-29T22:37:17.151Z,8.48
2019-04-29T22:39:46.045Z,8.51
2019-04-29T22:42:29.066Z,8.15
2019-04-29T22:45:00.665Z,8.14
2019-04-29T22:47:28.588Z,8.28
2019-04-29T22:49:58.758Z,8.27
2019-04-29T22:52:29.966Z,8.23
2019-04-29T22:55:01.570Z,8.12
2019-04-29T22:57:31.656Z,8.18
2019-04-29T22:59:59.700Z,8.22
2019-04-29T23:02:28.633Z,8.11
2019-04-29T23:04:57.584Z,7.92
2019-04-29T23:07:26.492Z,8.08
2019-04-29T23:09:55.498Z,8.12
2019-04-29T23:12:26.102Z,7.91
2019-04-29T23:14:56.554Z,8.18
2019-04-29T23:17:25.625Z,8.21
2019-04-29T23:19:57.046Z,8.16
2019-04-29T23:22:39.380Z,8.21
2019-04-29T23:25:15.303Z,8.12
2019-04-29T23:27:44.131Z,8.16
2019-04-29T23:30:18.067Z,7.99
2019-04-29T23:32:47.500Z,8.08
2019-04-29T23:35:16.636Z,8.13
2019-04-29T23:37:45.829Z,8.06
2019-04-29T23:40:15.033Z,8.08
2019-04-29T23:42:47.971Z,7.94
2019-04-29T23:45:21.065Z,7.86
2019-04-29T23:47:46.982Z,8.03
2019-04-29T23:50:18.588Z,8.07
2019-04-29T23:52:50.655Z,7.98
2019-04-29T23:55:20.430Z,7.77
2019-04-29T23:58:07.898Z,7.85
